Time;durP1;ratioP1;P1;durP2;ratioP2;P2;SDS_P1;SDS_P2;PMS_P1;PMS_P2;Temp;Humidity;BMP_temperature;BMP_pressure;BME280_temperature;BME280_humidity;BME280_pressure;Samples;Min_cycle;Max_cycle;Signal;HPM_P1;HPM_P2
2021/10/21 00:01:09;0.00;0.00;0.62;0.00;0.00;0.62;1.30;0.90;;;26.50;31.60;;;;;;2241656;62;20451;-54
2021/10/21 00:03:54;0.00;0.00;0.62;0.00;0.00;0.62;1.40;1.00;;;26.50;31.70;;;;;;2241579;62;20760;-55
2021/10/21 00:06:41;0.00;0.00;0.62;0.00;0.00;0.62;1.60;0.93;;;26.50;31.70;;;;;;2241332;62;20374;-55
2021/10/21 00:09:25;0.00;0.00;0.62;0.00;0.00;0.62;1.60;1.10;;;26.50;31.70;;;;;;2241687;61;20630;-55
2021/10/21 00:12:10;0.00;0.00;0.62;0.00;0.00;0.62;1.50;1.00;;;26.50;31.70;;;;;;2241098;62;20464;-58
2021/10/21 00:14:55;0.00;0.00;0.62;0.00;0.00;0.62;1.60;0.90;;;26.50;31.70;;;;;;2241616;62;20751;-57
2021/10/21 00:17:40;0.00;0.00;0.62;0.00;0.00;0.62;1.60;1.10;;;26.60;31.70;;;;;;2241924;62;20787;-59
2021/10/21 00:20:24;0.00;0.00;0.62;0.00;0.00;0.62;1.57;1.00;;;26.60;31.70;;;;;;2243109;61;20394;-55
2021/10/21 00:23:10;0.00;0.00;0.62;0.00;0.00;0.62;1.40;0.93;;;26.60;31.70;;;;;;2241687;62;20387;-57
2021/10/21 00:25:55;0.00;0.00;0.62;0.00;0.00;0.62;1.60;1.10;;;26.60;31.80;;;;;;2241665;62;20397;-58
2021/10/21 00:28:39;0.00;0.00;0.62;0.00;0.00;0.62;1.43;0.90;;;26.60;31.70;;;;;;2240990;61;20785;-57
2021/10/21 00:31:24;0.00;0.00;0.62;0.00;0.00;0.62;1.70;1.07;;;26.60;32.40;;;;;;2243915;61;20363;-58
2021/10/21 00:34:09;0.00;0.00;0.62;0.00;0.00;0.62;1.87;1.20;;;26.60;31.70;;;;;;2241051;62;20641;-59
2021/10/21 00:36:53;0.00;0.00;0.62;0.00;0.00;0.62;1.87;1.20;;;26.60;31.70;;;;;;2241571;62;20710;-57
2021/10/21 00:39:39;0.00;0.00;0.62;0.00;0.00;0.62;1.50;1.10;;;26.60;31.60;;;;;;2241752;61;20429;-58
2021/10/21 00:42:24;0.00;0.00;0.62;0.00;0.00;0.62;1.60;1.00;;;26.60;31.60;;;;;;2240686;62;20366;-57
2021/10/21 00:45:09;0.00;0.00;0.62;0.00;0.00;0.62;1.50;1.03;;;26.60;31.60;;;;;;2239479;62;20375;-55
2021/10/21 00:47:54;0.00;0.00;0.62;0.00;0.00;0.62;1.50;1.07;;;26.60;31.60;;;;;;2237352;62;20494;-56
2021/10/21 00:50:40;0.00;0.00;0.62;0.00;0.00;0.62;1.40;0.87;;;26.60;31.60;;;;;;2236623;62;20588;-58
2021/10/21 00:53:25;0.00;0.00;0.62;0.00;0.00;0.62;1.40;0.90;;;26.50;31.60;;;;;;2237791;62;20367;-58
2021/10/21 00:56:14;0.00;0.00;0.62;0.00;0.00;0.62;1.77;1.03;;;26.50;31.60;;;;;;2237239;62;20723;-58
2021/10/21 00:58:59;0.00;0.00;0.62;0.00;0.00;0.62;1.60;1.00;;;26.50;31.70;;;;;;2237572;62;20387;-56
2021/10/21 01:01:43;0.00;0.00;0.62;0.00;0.00;0.62;2.00;1.20;;;26.50;31.60;;;;;;2237839;62;20383;-57
2021/10/21 01:04:28;0.00;0.00;0.62;0.00;0.00;0.62;1.60;1.03;;;26.50;31.60;;;;;;2237026;62;20412;-55
2021/10/21 01:07:14;0.00;0.00;0.62;0.00;0.00;0.62;1.40;0.90;;;26.50;31.70;;;;;;2237315;62;20587;-57
2021/10/21 01:10:00;0.00;0.00;0.62;0.00;0.00;0.62;1.40;0.80;;;26.50;31.70;;;;;;2237833;62;20391;-57
2021/10/21 01:12:46;0.00;0.00;0.62;0.00;0.00;0.62;1.40;0.87;;;26.60;31.70;;;;;;2237143;62;20403;-60
2021/10/21 01:15:31;0.00;0.00;0.62;0.00;0.00;0.62;1.87;1.10;;;26.50;31.70;;;;;;2237780;62;20832;-60
2021/10/21 01:18:16;0.00;0.00;0.62;0.00;0.00;0.62;2.13;1.80;;;26.50;31.70;;;;;;2237148;62;20376;-56
2021/10/21 01:21:03;0.00;0.00;0.62;0.00;0.00;0.62;4.10;1.80;;;26.50;31.80;;;;;;2237651;62;20471;-59
2021/10/21 01:23:48;0.00;0.00;0.62;0.00;0.00;0.62;3.20;1.97;;;26.50;31.70;;;;;;2237719;62;20396;-60
2021/10/21 01:26:32;0.00;0.00;0.62;0.00;0.00;0.62;2.90;1.90;;;26.50;31.70;;;;;;2236823;62;20440;-57
2021/10/21 01:29:18;0.00;0.00;0.62;0.00;0.00;0.62;3.83;2.00;;;26.50;31.70;;;;;;2237542;62;20414;-58
2021/10/21 01:32:03;0.00;0.00;0.62;0.00;0.00;0.62;2.73;2.10;;;26.40;31.70;;;;;;2237884;62;20615;-60
2021/10/21 01:34:48;0.00;0.00;0.62;0.00;0.00;0.62;2.80;1.87;;;26.50;31.80;;;;;;2236803;62;20372;-55
2021/10/21 01:37:34;0.00;0.00;0.62;0.00;0.00;0.62;2.27;1.87;;;26.40;31.80;;;;;;2237633;62;20367;-58
2021/10/21 01:40:21;0.00;0.00;0.62;0.00;0.00;0.62;2.83;2.37;;;26.40;31.80;;;;;;2237367;62;20391;-58
2021/10/21 01:43:06;0.00;0.00;0.62;0.00;0.00;0.62;2.13;1.93;;;26.40;31.90;;;;;;2237595;62;20371;-59
2021/10/21 01:45:53;0.00;0.00;0.62;0.00;0.00;0.62;2.27;2.07;;;26.40;31.90;;;;;;2237694;62;20369;-60
2021/10/21 01:48:37;0.00;0.00;0.62;0.00;0.00;0.62;3.73;2.23;;;26.30;31.90;;;;;;2236767;62;20386;-59
2021/10/21 01:51:22;0.00;0.00;0.62;0.00;0.00;0.62;2.67;2.23;;;26.30;31.90;;;;;;2237388;62;20408;-57
2021/10/21 01:54:08;0.00;0.00;0.62;0.00;0.00;0.62;2.20;2.00;;;26.30;32.00;;;;;;2237799;62;20592;-58
2021/10/21 01:56:53;0.00;0.00;0.62;0.00;0.00;0.62;3.70;1.87;;;26.30;32.00;;;;;;2236672;62;20735;-57
2021/10/21 01:59:37;0.00;0.00;0.62;0.00;0.00;0.62;4.33;2.00;;;26.30;32.10;;;;;;2237420;62;20776;-58
2021/10/21 02:02:22;0.00;0.00;0.62;0.00;0.00;0.62;4.00;2.23;;;26.30;32.10;;;;;;2237328;62;20735;-59
2021/10/21 02:05:08;0.00;0.00;0.62;0.00;0.00;0.62;3.10;2.07;;;26.20;32.00;;;;;;2237209;62;20367;-60
2021/10/21 02:07:52;0.00;0.00;0.62;0.00;0.00;0.62;2.90;2.27;;;26.20;32.20;;;;;;2237435;62;20374;-58
2021/10/21 02:10:38;0.00;0.00;0.62;0.00;0.00;0.62;2.00;1.77;;;26.20;32.20;;;;;;2236924;62;20371;-59
2021/10/21 02:13:23;0.00;0.00;0.62;0.00;0.00;0.62;3.60;2.10;;;26.20;32.20;;;;;;2237328;62;20724;-56
2021/10/21 02:16:08;0.00;0.00;0.62;0.00;0.00;0.62;4.00;2.23;;;26.10;32.20;;;;;;2237797;62;20362;-57
2021/10/21 02:18:53;0.00;0.00;0.62;0.00;0.00;0.62;2.43;1.90;;;26.10;32.30;;;;;;2236393;62;20391;-56
2021/10/21 02:21:38;0.00;0.00;0.62;0.00;0.00;0.62;2.40;1.93;;;26.10;32.40;;;;;;2237551;62;20391;-56
2021/10/21 02:24:22;0.00;0.00;0.62;0.00;0.00;0.62;3.43;2.30;;;26.10;32.60;;;;;;2237225;62;20396;-57
2021/10/21 02:27:08;0.00;0.00;0.62;0.00;0.00;0.62;2.43;2.00;;;26.00;32.60;;;;;;2236955;62;20383;-59
2021/10/21 02:29:53;0.00;0.00;0.62;0.00;0.00;0.62;2.40;2.20;;;26.00;32.70;;;;;;2237468;62;20512;-56
2021/10/21 02:32:39;0.00;0.00;0.62;0.00;0.00;0.62;2.47;1.87;;;26.00;32.80;;;;;;2236793;62;20362;-58
2021/10/21 02:35:24;0.00;0.00;0.62;0.00;0.00;0.62;3.17;2.33;;;26.00;33.00;;;;;;2237360;62;20412;-57
2021/10/21 02:38:08;0.00;0.00;0.62;0.00;0.00;0.62;3.00;2.00;;;26.00;33.10;;;;;;2237681;62;20399;-58
2021/10/21 02:40:53;0.00;0.00;0.62;0.00;0.00;0.62;2.57;1.50;;;25.90;33.10;;;;;;2236569;62;20384;-60
2021/10/21 02:43:39;0.00;0.00;0.62;0.00;0.00;0.62;4.53;1.80;;;25.90;33.20;;;;;;2237688;62;20400;-60
2021/10/21 02:46:23;0.00;0.00;0.62;0.00;0.00;0.62;2.73;1.80;;;25.90;33.20;;;;;;2237679;62;20375;-59
2021/10/21 02:49:08;0.00;0.00;0.62;0.00;0.00;0.62;3.70;2.07;;;25.90;33.20;;;;;;2236918;62;20446;-58
2021/10/21 02:51:53;0.00;0.00;0.62;0.00;0.00;0.62;1.90;1.37;;;25.90;33.20;;;;;;2237460;62;20400;-58
2021/10/21 02:54:37;0.00;0.00;0.62;0.00;0.00;0.62;2.23;1.80;;;25.80;33.10;;;;;;2237232;62;20403;-58
2021/10/21 02:57:22;0.00;0.00;0.62;0.00;0.00;0.62;2.07;1.87;;;25.80;33.20;;;;;;2237955;62;20700;-60
2021/10/21 03:00:10;0.00;0.00;0.62;0.00;0.00;0.62;2.40;1.70;;;25.80;33.10;;;;;;2238327;62;20455;-57
2021/10/21 03:02:54;0.00;0.00;0.62;0.00;0.00;0.62;2.07;1.70;;;25.80;33.20;;;;;;2237394;62;20759;-59
2021/10/21 03:05:39;0.00;0.00;0.62;0.00;0.00;0.62;2.80;1.93;;;25.80;33.20;;;;;;2237938;62;20415;-60
2021/10/21 03:08:24;0.00;0.00;0.62;0.00;0.00;0.62;2.60;2.17;;;25.80;33.40;;;;;;2238208;62;20398;-60
2021/10/21 03:11:09;0.00;0.00;0.62;0.00;0.00;0.62;2.80;2.07;;;25.80;33.40;;;;;;2237444;62;20360;-60
2021/10/21 03:13:53;0.00;0.00;0.62;0.00;0.00;0.62;2.20;1.90;;;25.80;33.50;;;;;;2238073;62;20416;-58
2021/10/21 03:16:40;0.00;0.00;0.62;0.00;0.00;0.62;2.20;1.87;;;25.80;33.50;;;;;;2237752;62;20380;-59
2021/10/21 03:19:25;0.00;0.00;0.62;0.00;0.00;0.62;1.93;1.40;;;25.70;33.50;;;;;;2237797;62;20391;-58
2021/10/21 03:22:10;0.00;0.00;0.62;0.00;0.00;0.62;2.70;1.87;;;25.70;33.60;;;;;;2238133;62;20464;-55
2021/10/21 03:24:54;0.00;0.00;0.62;0.00;0.00;0.62;2.40;1.70;;;25.70;33.60;;;;;;2237351;62;20718;-60
2021/10/21 03:27:39;0.00;0.00;0.62;0.00;0.00;0.62;2.83;1.70;;;25.70;33.60;;;;;;2237686;62;20387;-58
2021/10/21 03:30:24;0.00;0.00;0.62;0.00;0.00;0.62;2.80;2.07;;;25.70;33.70;;;;;;2238286;62;20391;-54
2021/10/21 03:33:11;0.00;0.00;0.62;0.00;0.00;0.62;1.97;1.70;;;25.70;33.70;;;;;;2236605;62;20621;-58
2021/10/21 03:35:56;0.00;0.00;0.62;0.00;0.00;0.62;2.90;2.00;;;25.70;33.70;;;;;;2237959;62;20375;-56
2021/10/21 03:38:40;0.00;0.00;0.62;0.00;0.00;0.62;2.90;1.50;;;25.70;33.70;;;;;;2237578;62;20663;-59
2021/10/21 03:41:25;0.00;0.00;0.62;0.00;0.00;0.62;2.80;1.73;;;25.60;33.80;;;;;;2237818;62;20763;-60
2021/10/21 03:44:09;0.00;0.00;0.62;0.00;0.00;0.62;3.20;1.97;;;25.60;33.90;;;;;;2237868;62;20718;-59
2021/10/21 03:46:54;0.00;0.00;0.62;0.00;0.00;0.62;3.00;1.60;;;25.60;34.00;;;;;;2237275;62;20403;-55
2021/10/21 03:49:40;0.00;0.00;0.62;0.00;0.00;0.62;2.80;1.50;;;25.60;34.00;;;;;;2237664;62;20446;-58
2021/10/21 03:52:24;0.00;0.00;0.62;0.00;0.00;0.62;2.10;1.50;;;25.60;34.10;;;;;;2238050;62;20484;-59
2021/10/21 03:55:09;0.00;0.00;0.62;0.00;0.00;0.62;2.77;1.90;;;25.60;34.00;;;;;;2236987;62;20419;-57
2021/10/21 03:57:54;0.00;0.00;0.62;0.00;0.00;0.62;2.40;1.70;;;25.50;34.00;;;;;;2237902;62;20367;-58
2021/10/21 04:00:38;0.00;0.00;0.62;0.00;0.00;0.62;2.00;1.63;;;25.50;33.90;;;;;;2237574;62;20479;-55
2021/10/21 04:03:23;0.00;0.00;0.62;0.00;0.00;0.62;1.90;1.50;;;25.50;33.90;;;;;;2237416;62;20367;-57
2021/10/21 04:06:09;0.00;0.00;0.62;0.00;0.00;0.62;2.00;1.33;;;25.40;33.80;;;;;;2237689;62;20371;-58
2021/10/21 04:08:53;0.00;0.00;0.62;0.00;0.00;0.62;2.37;1.53;;;25.40;33.70;;;;;;2236960;62;20403;-56
2021/10/21 04:11:38;0.00;0.00;0.62;0.00;0.00;0.62;3.23;1.70;;;25.40;33.70;;;;;;2237856;62;20367;-58
2021/10/21 04:14:22;0.00;0.00;0.62;0.00;0.00;0.62;2.60;1.63;;;25.40;33.60;;;;;;2238152;62;20371;-59
2021/10/21 04:17:07;0.00;0.00;0.62;0.00;0.00;0.62;2.00;1.60;;;25.30;33.40;;;;;;2236792;62;20371;-58
2021/10/21 04:19:51;0.00;0.00;0.62;0.00;0.00;0.62;2.07;1.33;;;25.20;33.30;;;;;;2237808;62;20387;-59
2021/10/21 04:22:37;0.00;0.00;0.62;0.00;0.00;0.62;2.97;1.67;;;25.20;33.10;;;;;;2238002;62;20391;-57
2021/10/21 04:25:22;0.00;0.00;0.62;0.00;0.00;0.62;2.70;1.40;;;25.20;33.10;;;;;;2237270;62;20367;-56
2021/10/21 04:28:07;0.00;0.00;0.62;0.00;0.00;0.62;1.80;1.00;;;25.10;32.80;;;;;;2237774;62;20364;-59
2021/10/21 04:30:51;0.00;0.00;0.62;0.00;0.00;0.62;2.00;1.00;;;25.10;32.60;;;;;;2237038;62;20731;-58
2021/10/21 04:33:36;0.00;0.00;0.62;0.00;0.00;0.62;1.90;1.00;;;25.00;32.10;;;;;;2237666;62;20723;-59
2021/10/21 04:36:21;0.00;0.00;0.62;0.00;0.00;0.62;2.17;1.00;;;25.00;31.70;;;;;;2237804;62;20428;-57
2021/10/21 04:39:06;0.00;0.00;0.62;0.00;0.00;0.62;3.23;0.97;;;24.90;31.20;;;;;;2236901;62;20431;-59
2021/10/21 04:41:51;0.00;0.00;0.62;0.00;0.00;0.62;2.00;1.23;;;24.90;30.60;;;;;;2237802;62;20403;-58
2021/10/21 04:44:35;0.00;0.00;0.62;0.00;0.00;0.62;1.60;0.90;;;24.80;30.40;;;;;;2237903;62;20384;-56
2021/10/21 04:47:20;0.00;0.00;0.62;0.00;0.00;0.62;1.60;0.80;;;24.70;30.10;;;;;;2237004;62;20393;-55
2021/10/21 04:50:05;0.00;0.00;0.62;0.00;0.00;0.62;1.60;0.90;;;24.70;30.00;;;;;;2237818;62;20387;-57
2021/10/21 04:52:53;0.00;0.00;0.62;0.00;0.00;0.62;1.83;0.70;;;24.70;29.90;;;;;;2237267;62;20380;-60
2021/10/21 04:55:39;0.00;0.00;0.62;0.00;0.00;0.62;2.43;0.97;;;24.60;29.80;;;;;;2237764;62;20384;-59
2021/10/21 04:58:23;0.00;0.00;0.62;0.00;0.00;0.62;1.60;0.80;;;24.60;29.80;;;;;;2237699;62;20444;-58
2021/10/21 05:01:09;0.00;0.00;0.62;0.00;0.00;0.62;2.13;0.90;;;24.50;30.20;;;;;;2236437;62;20560;-57
2021/10/21 05:03:54;0.00;0.00;0.62;0.00;0.00;0.62;2.60;0.93;;;24.50;29.70;;;;;;2237661;62;20367;-58
2021/10/21 05:06:39;0.00;0.00;0.62;0.00;0.00;0.62;4.30;1.00;;;24.40;29.70;;;;;;2237817;62;20448;-58
2021/10/21 05:09:23;0.00;0.00;0.62;0.00;0.00;0.62;3.53;0.90;;;24.30;29.60;;;;;;2236623;62;20454;-59
2021/10/21 05:12:09;0.00;0.00;0.62;0.00;0.00;0.62;4.10;1.20;;;24.30;29.60;;;;;;2237836;62;20399;-58
2021/10/21 05:14:55;0.00;0.00;0.62;0.00;0.00;0.62;2.87;0.90;;;24.30;29.80;;;;;;2237327;62;20727;-57
2021/10/21 05:17:40;0.00;0.00;0.62;0.00;0.00;0.62;2.30;0.90;;;24.20;29.70;;;;;;2237655;62;20379;-57
2021/10/21 05:20:24;0.00;0.00;0.62;0.00;0.00;0.62;2.17;0.97;;;24.20;29.80;;;;;;2237598;62;20452;-59
2021/10/21 05:23:09;0.00;0.00;0.62;0.00;0.00;0.62;2.33;0.90;;;24.10;29.80;;;;;;2237036;62;20620;-58
2021/10/21 05:25:54;0.00;0.00;0.62;0.00;0.00;0.62;1.40;0.70;;;24.00;29.80;;;;;;2237577;62;20367;-59
2021/10/21 05:28:39;0.00;0.00;0.62;0.00;0.00;0.62;3.07;0.90;;;24.00;29.90;;;;;;2237648;62;20398;-58
2021/10/21 05:31:24;0.00;0.00;0.62;0.00;0.00;0.62;3.10;0.90;;;24.00;29.90;;;;;;2236703;62;20727;-60
2021/10/21 05:34:09;0.00;0.00;0.62;0.00;0.00;0.62;5.03;1.63;;;23.90;29.90;;;;;;2237601;62;20448;-59
2021/10/21 05:36:53;0.00;0.00;0.62;0.00;0.00;0.62;2.33;1.00;;;23.90;29.90;;;;;;2237268;62;20367;-58
2021/10/21 05:39:38;0.00;0.00;0.62;0.00;0.00;0.62;2.60;0.80;;;23.90;29.80;;;;;;2237077;62;20379;-56
2021/10/21 05:42:22;0.00;0.00;0.62;0.00;0.00;0.62;3.70;1.03;;;23.80;29.70;;;;;;2237590;62;20399;-59
2021/10/21 05:45:08;0.00;0.00;0.62;0.00;0.00;0.62;2.33;1.17;;;23.80;29.70;;;;;;2236804;62;20367;-59
2021/10/21 05:47:53;0.00;0.00;0.62;0.00;0.00;0.62;1.93;1.23;;;23.80;29.90;;;;;;2237488;62;20391;-58
2021/10/21 05:50:38;0.00;0.00;0.62;0.00;0.00;0.62;2.03;0.80;;;23.80;30.00;;;;;;2237794;62;20362;-58
2021/10/21 05:53:22;0.00;0.00;0.62;0.00;0.00;0.62;3.00;0.67;;;23.80;30.30;;;;;;2236528;62;20432;-58
2021/10/21 05:56:07;0.00;0.00;0.62;0.00;0.00;0.62;1.47;0.70;;;23.80;30.40;;;;;;2237598;62;20416;-58
2021/10/21 05:58:51;0.00;0.00;0.62;0.00;0.00;0.62;1.33;0.70;;;23.80;30.50;;;;;;2237292;62;20783;-60
2021/10/21 06:01:37;0.00;0.00;0.62;0.00;0.00;0.62;1.77;0.77;;;23.80;30.60;;;;;;2237125;62;20391;-60
2021/10/21 06:04:22;0.00;0.00;0.62;0.00;0.00;0.62;3.73;1.07;;;23.80;30.70;;;;;;2237479;62;20586;-57
2021/10/21 06:07:07;0.00;0.00;0.62;0.00;0.00;0.62;1.40;0.70;;;23.90;30.80;;;;;;2236856;62;20407;-59
2021/10/21 06:09:56;0.00;0.00;0.62;0.00;0.00;0.62;1.57;0.87;;;23.90;30.90;;;;;;2237312;62;20771;-61
2021/10/21 06:12:41;0.00;0.00;0.62;0.00;0.00;0.62;1.30;0.80;;;23.90;31.60;;;;;;2237746;62;20388;-59
2021/10/21 06:15:26;0.00;0.00;0.62;0.00;0.00;0.62;2.00;0.87;;;23.90;30.80;;;;;;2236973;62;20615;-59
2021/10/21 06:18:13;0.00;0.00;0.62;0.00;0.00;0.62;1.40;0.70;;;24.00;31.00;;;;;;2237349;62;20358;-59
2021/10/21 06:21:00;0.00;0.00;0.62;0.00;0.00;0.62;1.50;0.70;;;24.00;30.90;;;;;;2237578;62;20459;-59
2021/10/21 06:23:44;0.00;0.00;0.62;0.00;0.00;0.62;2.03;0.80;;;24.00;30.90;;;;;;2236977;62;20388;-57
2021/10/21 06:26:29;0.00;0.00;0.62;0.00;0.00;0.62;2.33;0.77;;;24.10;31.00;;;;;;2237561;62;20444;-60
2021/10/21 06:29:13;0.00;0.00;0.62;0.00;0.00;0.62;1.37;0.70;;;24.10;31.00;;;;;;2237203;62;20402;-58
2021/10/21 06:32:00;0.00;0.00;0.62;0.00;0.00;0.62;1.57;0.67;;;24.10;30.90;;;;;;2238147;62;20383;-59
2021/10/21 06:34:46;0.00;0.00;0.62;0.00;0.00;0.62;2.17;0.70;;;24.20;31.00;;;;;;2238317;62;20367;-58
2021/10/21 06:37:32;0.00;0.00;0.62;0.00;0.00;0.62;1.93;0.80;;;24.20;31.00;;;;;;2237368;62;20460;-59
2021/10/21 06:40:17;0.00;0.00;0.62;0.00;0.00;0.62;1.53;0.73;;;24.20;31.00;;;;;;2238050;62;20387;-59
2021/10/21 06:43:01;0.00;0.00;0.62;0.00;0.00;0.62;1.73;0.90;;;24.20;31.00;;;;;;2238542;62;20607;-56
2021/10/21 06:45:46;0.00;0.00;0.62;0.00;0.00;0.62;1.23;0.60;;;24.30;31.00;;;;;;2237667;62;20363;-58
2021/10/21 06:48:30;0.00;0.00;0.62;0.00;0.00;0.62;1.87;0.70;;;24.30;31.00;;;;;;2238056;62;20367;-60
2021/10/21 06:51:16;0.00;0.00;0.62;0.00;0.00;0.62;1.70;0.80;;;24.30;31.10;;;;;;2237952;62;20582;-60
2021/10/21 06:54:01;0.00;0.00;0.62;0.00;0.00;0.62;1.83;0.80;;;24.30;31.10;;;;;;2237976;62;20371;-59
2021/10/21 06:56:45;0.00;0.00;0.62;0.00;0.00;0.62;2.40;1.30;;;24.30;31.20;;;;;;2238218;62;20668;-59
2021/10/21 06:59:30;0.00;0.00;0.62;0.00;0.00;0.62;2.70;0.90;;;24.30;31.10;;;;;;2236825;62;20379;-56
2021/10/21 07:02:14;0.00;0.00;0.62;0.00;0.00;0.62;1.50;0.83;;;24.40;31.20;;;;;;2237851;62;20387;-58
2021/10/21 07:04:59;0.00;0.00;0.62;0.00;0.00;0.62;3.40;1.00;;;24.40;31.20;;;;;;2238366;62;20423;-59
2021/10/21 07:07:45;0.00;0.00;0.62;0.00;0.00;0.62;3.57;1.23;;;24.40;31.20;;;;;;2236957;62;20587;-60
2021/10/21 07:10:29;0.00;0.00;0.62;0.00;0.00;0.62;2.27;0.90;;;24.50;31.30;;;;;;2237991;62;20834;-57
2021/10/21 07:13:14;0.00;0.00;0.62;0.00;0.00;0.62;2.80;0.90;;;24.50;31.30;;;;;;2237420;62;20416;-60
2021/10/21 07:15:58;0.00;0.00;0.62;0.00;0.00;0.62;3.40;0.97;;;24.50;31.30;;;;;;2237705;62;20399;-61
2021/10/21 07:18:43;0.00;0.00;0.62;0.00;0.00;0.62;1.73;1.00;;;24.50;31.30;;;;;;2238038;62;20390;-60
2021/10/21 07:21:29;0.00;0.00;0.62;0.00;0.00;0.62;3.40;0.90;;;24.60;31.40;;;;;;2239780;62;20392;-60
2021/10/21 07:24:15;0.00;0.00;0.62;0.00;0.00;0.62;1.67;0.73;;;24.60;31.40;;;;;;2237859;62;20371;-61
2021/10/21 07:27:00;0.00;0.00;0.62;0.00;0.00;0.62;1.70;0.87;;;24.60;31.30;;;;;;2236727;62;20371;-61
2021/10/21 07:29:45;0.00;0.00;0.62;0.00;0.00;0.62;1.30;0.60;;;24.60;31.40;;;;;;2237199;61;20442;-59
2021/10/21 07:32:29;0.00;0.00;0.62;0.00;0.00;0.62;1.17;0.60;;;24.60;31.40;;;;;;2242051;62;20411;-60
2021/10/21 07:35:14;0.00;0.00;0.62;0.00;0.00;0.62;1.20;0.70;;;24.60;31.40;;;;;;2241621;62;20366;-60
2021/10/21 07:38:00;0.00;0.00;0.62;0.00;0.00;0.62;1.30;0.70;;;24.70;31.50;;;;;;2241320;62;20630;-59
2021/10/21 07:40:46;0.00;0.00;0.62;0.00;0.00;0.62;4.80;0.90;;;24.70;31.40;;;;;;2241944;62;20415;-60
2021/10/21 07:43:35;0.00;0.00;0.62;0.00;0.00;0.62;1.70;0.70;;;24.70;31.40;;;;;;2241092;62;20383;-57
2021/10/21 07:46:19;0.00;0.00;0.62;0.00;0.00;0.62;1.60;0.87;;;24.70;31.40;;;;;;2241924;62;20406;-60
2021/10/21 07:49:04;0.00;0.00;0.62;0.00;0.00;0.62;1.90;0.90;;;24.70;31.40;;;;;;2241928;61;20386;-58
2021/10/21 07:51:49;0.00;0.00;0.62;0.00;0.00;0.62;1.63;0.70;;;24.80;31.50;;;;;;2241010;62;20362;-60
2021/10/21 07:54:34;0.00;0.00;0.62;0.00;0.00;0.62;1.67;0.67;;;24.80;31.50;;;;;;2241916;62;20366;-60
2021/10/21 07:57:20;0.00;0.00;0.62;0.00;0.00;0.62;1.40;0.70;;;24.80;31.40;;;;;;2241333;62;20362;-58
2021/10/21 08:00:12;0.00;0.00;0.62;0.00;0.00;0.62;1.40;0.80;;;24.80;31.40;;;;;;2241539;61;20461;-60
2021/10/21 08:02:57;0.00;0.00;0.62;0.00;0.00;0.62;2.67;0.83;;;24.80;31.40;;;;;;2238890;62;20363;-59
2021/10/21 08:05:42;0.00;0.00;0.62;0.00;0.00;0.62;1.73;0.70;;;24.90;31.50;;;;;;2237903;62;20422;-59
2021/10/21 08:08:27;0.00;0.00;0.62;0.00;0.00;0.62;2.23;0.90;;;24.90;31.50;;;;;;2241467;61;20423;-59
2021/10/21 08:11:13;0.00;0.00;0.62;0.00;0.00;0.62;2.30;1.00;;;24.90;31.50;;;;;;2241613;62;20474;-60
2021/10/21 08:13:59;0.00;0.00;0.62;0.00;0.00;0.62;1.53;0.80;;;24.90;31.50;;;;;;2241086;62;20382;-61
2021/10/21 08:16:44;0.00;0.00;0.62;0.00;0.00;0.62;2.37;0.80;;;24.90;31.50;;;;;;2241545;62;20366;-60
2021/10/21 08:19:32;0.00;0.00;0.62;0.00;0.00;0.62;2.00;0.90;;;24.90;31.50;;;;;;2241235;61;20409;-61
2021/10/21 08:22:17;0.00;0.00;0.62;0.00;0.00;0.62;2.10;0.87;;;24.90;31.50;;;;;;2240896;62;20398;-60
2021/10/21 08:25:03;0.00;0.00;0.62;0.00;0.00;0.62;1.40;0.77;;;24.90;31.50;;;;;;2241650;62;20393;-60
2021/10/21 08:27:48;0.00;0.00;0.62;0.00;0.00;0.62;3.30;0.90;;;25.00;31.60;;;;;;2240790;62;20439;-57
2021/10/21 08:30:37;0.00;0.00;0.62;0.00;0.00;0.62;2.70;0.70;;;25.00;31.60;;;;;;2238498;62;20442;-60
2021/10/21 08:33:21;0.00;0.00;0.62;0.00;0.00;0.62;1.53;0.80;;;25.00;31.60;;;;;;2241821;62;20563;-59
2021/10/21 08:36:10;0.00;0.00;0.62;0.00;0.00;0.62;1.90;0.83;;;25.00;31.50;;;;;;2240684;62;20374;-60
2021/10/21 08:38:56;0.00;0.00;0.62;0.00;0.00;0.62;2.27;0.80;;;25.00;31.50;;;;;;2241515;61;20761;-60
2021/10/21 08:41:42;0.00;0.00;0.62;0.00;0.00;0.62;1.23;0.60;;;25.00;31.50;;;;;;2241591;62;20458;-58
2021/10/21 08:44:27;0.00;0.00;0.62;0.00;0.00;0.62;1.47;0.80;;;25.00;31.50;;;;;;2241322;62;20365;-60
2021/10/21 08:47:18;0.00;0.00;0.62;0.00;0.00;0.62;1.60;0.90;;;25.10;31.50;;;;;;2241463;62;20366;-60
2021/10/21 08:50:06;0.00;0.00;0.62;0.00;0.00;0.62;1.73;0.70;;;25.10;31.50;;;;;;2240793;61;20426;-59
2021/10/21 08:52:51;0.00;0.00;0.62;0.00;0.00;0.62;1.83;0.80;;;25.10;31.50;;;;;;2241571;62;20410;-60
2021/10/21 08:55:36;0.00;0.00;0.62;0.00;0.00;0.62;1.20;0.73;;;25.10;31.50;;;;;;2241845;62;20782;-60
2021/10/21 08:58:25;0.00;0.00;0.62;0.00;0.00;0.62;1.10;0.60;;;25.10;31.50;;;;;;2240859;61;20591;-58
2021/10/21 09:01:16;0.00;0.00;0.62;0.00;0.00;0.62;6.83;0.90;;;25.10;31.50;;;;;;2241180;62;20389;-59
2021/10/21 09:09:54;0.00;0.00;0.62;0.00;0.00;0.62;2.70;1.13;;;25.10;31.50;;;;;;2240551;61;20476;-59
2021/10/21 09:12:41;0.00;0.00;0.62;0.00;0.00;0.62;3.50;1.10;;;25.20;31.50;;;;;;2278224;58;20485;-58
2021/10/21 09:15:27;0.00;0.00;0.62;0.00;0.00;0.62;2.80;1.20;;;25.20;31.50;;;;;;2241504;62;20681;-59
2021/10/21 09:18:13;0.00;0.00;0.62;0.00;0.00;0.62;1.97;1.10;;;25.20;31.50;;;;;;2241589;62;20487;-59
2021/10/21 09:21:00;0.00;0.00;0.62;0.00;0.00;0.62;6.30;1.43;;;25.20;31.50;;;;;;2240836;62;20382;-59
2021/10/21 09:23:44;0.00;0.00;0.62;0.00;0.00;0.62;1.30;0.70;;;25.20;31.50;;;;;;2241089;62;20578;-60
2021/10/21 09:26:29;0.00;0.00;0.62;0.00;0.00;0.62;3.63;1.23;;;25.20;31.40;;;;;;2241066;62;20398;-58
2021/10/21 09:29:24;0.00;0.00;0.62;0.00;0.00;0.62;3.60;1.10;;;25.20;32.10;;;;;;2240718;62;20391;-56
2021/10/21 09:32:11;0.00;0.00;0.62;0.00;0.00;0.62;2.13;1.17;;;25.20;31.40;;;;;;2241158;62;20438;-58
2021/10/21 09:34:59;0.00;0.00;0.62;0.00;0.00;0.62;4.40;1.00;;;25.30;31.50;;;;;;2243180;61;20405;-60
2021/10/21 09:37:47;0.00;0.00;0.62;0.00;0.00;0.62;2.40;1.10;;;25.30;31.40;;;;;;2241085;62;20406;-59
2021/10/21 09:40:36;0.00;0.00;0.62;0.00;0.00;0.62;2.60;1.10;;;25.30;31.40;;;;;;2241386;62;20382;-57
2021/10/21 09:43:30;0.00;0.00;0.62;0.00;0.00;0.62;1.90;0.90;;;25.30;31.40;;;;;;2240992;62;20370;-58
2021/10/21 09:46:45;0.00;0.00;0.62;0.00;0.00;0.62;2.03;1.00;;;25.30;31.40;;;;;;2241604;62;20362;-59
2021/10/21 09:49:32;0.00;0.00;0.62;0.00;0.00;0.62;2.40;1.10;;;25.30;31.40;;;;;;2228007;62;20389;-60
2021/10/21 09:52:20;0.00;0.00;0.62;0.00;0.00;0.62;2.60;1.10;;;25.30;31.30;;;;;;2241608;62;20374;-54
2021/10/21 09:55:09;0.00;0.00;0.62;0.00;0.00;0.62;1.80;0.80;;;25.30;31.30;;;;;;2241689;62;20370;-60
2021/10/21 09:57:59;0.00;0.00;0.62;0.00;0.00;0.62;1.70;0.80;;;25.30;31.30;;;;;;2240686;62;20362;-60
2021/10/21 10:00:44;0.00;0.00;0.62;0.00;0.00;0.62;2.17;0.80;;;25.40;31.30;;;;;;2241454;62;20435;-60
2021/10/21 10:03:32;0.00;0.00;0.62;0.00;0.00;0.62;1.20;0.60;;;25.40;31.30;;;;;;2241429;62;20382;-57
2021/10/21 10:06:18;0.00;0.00;0.62;0.00;0.00;0.62;1.93;0.90;;;25.40;31.30;;;;;;2241990;62;20370;-59
2021/10/21 10:09:03;0.00;0.00;0.62;0.00;0.00;0.62;1.40;0.80;;;25.40;31.30;;;;;;2244401;61;20394;-59
2021/10/21 10:11:49;0.00;0.00;0.62;0.00;0.00;0.62;1.50;0.80;;;25.40;31.30;;;;;;2241053;62;20354;-57
2021/10/21 10:14:37;0.00;0.00;0.62;0.00;0.00;0.62;1.77;0.80;;;25.40;31.20;;;;;;2242091;62;20362;-59
2021/10/21 10:17:22;0.00;0.00;0.62;0.00;0.00;0.62;1.33;0.60;;;25.50;31.20;;;;;;2242057;62;20448;-60
2021/10/21 10:20:08;0.00;0.00;0.62;0.00;0.00;0.62;1.50;0.80;;;25.40;31.20;;;;;;2241285;62;20410;-58
2021/10/21 10:22:55;0.00;0.00;0.62;0.00;0.00;0.62;2.83;0.90;;;25.40;31.10;;;;;;2242195;62;20751;-60
2021/10/21 10:25:48;0.00;0.00;0.62;0.00;0.00;0.62;3.83;1.23;;;25.40;31.80;;;;;;2241924;62;20730;-60
2021/10/21 10:28:54;0.00;0.00;0.62;0.00;0.00;0.62;2.63;1.00;;;25.50;31.10;;;;;;2241764;62;20642;-58
2021/10/21 10:31:40;0.00;0.00;0.62;0.00;0.00;0.62;3.87;1.03;;;25.50;31.10;;;;;;2242212;62;20399;-60
2021/10/21 10:34:54;0.00;0.00;0.62;0.00;0.00;0.62;1.83;0.97;;;25.50;31.10;;;;;;2241481;62;20418;-59
2021/10/21 10:37:42;0.00;0.00;0.62;0.00;0.00;0.62;1.97;1.00;;;25.50;31.20;;;;;;2241451;62;20434;-59
2021/10/21 10:40:45;0.00;0.00;0.62;0.00;0.00;0.62;1.60;0.80;;;25.50;31.20;;;;;;2241735;62;20381;-59
2021/10/21 10:43:41;0.00;0.00;0.62;0.00;0.00;0.62;3.10;1.40;;;25.50;31.20;;;;;;2242128;62;20365;-59
2021/10/21 10:49:42;0.00;0.00;0.62;0.00;0.00;0.62;1.70;0.90;;;25.50;31.20;;;;;;1680119;74;20727;-58
2021/10/21 10:52:44;0.00;0.00;0.62;0.00;0.00;0.62;1.60;0.80;;;25.60;31.30;;;;;;2272948;61;20343;-59
2021/10/21 10:55:38;0.00;0.00;0.62;0.00;0.00;0.62;1.63;0.93;;;25.60;31.30;;;;;;2272664;61;20371;-60
2021/10/21 10:58:26;0.00;0.00;0.62;0.00;0.00;0.62;1.70;0.80;;;25.60;31.20;;;;;;2272733;61;20359;-59
2021/10/21 11:01:28;0.00;0.00;0.62;0.00;0.00;0.62;1.30;0.70;;;25.70;31.20;;;;;;2272973;61;20389;-56
2021/10/21 11:04:55;0.00;0.00;0.62;0.00;0.00;0.62;1.40;0.70;;;25.70;31.20;;;;;;2272229;61;20355;-59